Time;durP1;ratioP1;P1;durP2;ratioP2;P2;SDS_P1;SDS_P2;PMS_P1;PMS_P2;Temp;Humidity;BMP_temperature;BMP_pressure;BME280_temperature;BME280_humidity;BME280_pressure;Samples;Min_cycle;Max_cycle;Signal;HPM_P1;HPM_P2
2022/07/20 00:01:14;;;;;;;4.17;3.87;;;;;;;;;;5032345;28;20267;-59
2022/07/20 00:03:41;;;;;;;3.50;3.17;;;;;;;;;;5024904;28;20181;-58
2022/07/20 00:06:08;;;;;;;4.00;3.70;;;;;;;;;;5010533;28;20578;-58
2022/07/20 00:11:21;;;;;;;4.23;3.83;;;;;;;;;;5023698;28;20192;-58
2022/07/20 00:13:55;;;;;;;4.60;4.20;;;;;;;;;;4992053;28;20178;-59
2022/07/20 00:16:23;;;;;;;4.60;4.20;;;;;;;;;;5023684;28;20246;-59
2022/07/20 00:18:49;;;;;;;4.03;3.75;;;;;;;;;;5025201;28;20181;-58
2022/07/20 00:21:15;;;;;;;4.20;3.80;;;;;;;;;;5022838;28;21029;-57
2022/07/20 00:23:41;;;;;;;3.87;3.57;;;;;;;;;;5006778;28;20181;-58
2022/07/20 00:26:08;;;;;;;3.73;3.53;;;;;;;;;;5025578;28;20609;-59
2022/07/20 00:28:34;;;;;;;3.92;3.63;;;;;;;;;;5022237;28;20185;-59
2022/07/20 00:31:00;;;;;;;4.75;3.70;;;;;;;;;;5027941;28;20203;-56
2022/07/20 00:33:29;;;;;;;3.78;3.40;;;;;;;;;;5024778;28;20296;-59
2022/07/20 00:35:55;;;;;;;4.30;3.50;;;;;;;;;;5009263;28;20188;-58
2022/07/20 00:38:22;;;;;;;4.05;3.67;;;;;;;;;;5026274;28;20226;-58
2022/07/20 00:40:48;;;;;;;4.60;3.83;;;;;;;;;;5029861;28;20641;-60
2022/07/20 00:43:14;;;;;;;3.90;3.60;;;;;;;;;;5028914;28;20312;-59
2022/07/20 00:45:40;;;;;;;4.57;3.50;;;;;;;;;;5030007;28;20656;-60
2022/07/20 00:48:06;;;;;;;3.97;3.60;;;;;;;;;;5025098;28;20428;-59
2022/07/20 00:50:32;;;;;;;4.50;4.10;;;;;;;;;;5029376;28;20170;-59
2022/07/20 00:53:00;;;;;;;4.22;3.90;;;;;;;;;;5025855;28;20216;-60
2022/07/20 00:55:26;;;;;;;4.00;3.70;;;;;;;;;;5038591;28;20181;-58
2022/07/20 00:57:52;;;;;;;5.00;3.28;;;;;;;;;;5030861;28;20202;-60
2022/07/20 01:00:18;;;;;;;3.95;3.65;;;;;;;;;;5010883;28;20673;-57
2022/07/20 01:02:44;;;;;;;4.30;4.00;;;;;;;;;;5012806;28;20232;-59
2022/07/20 01:05:16;;;;;;;4.50;4.20;;;;;;;;;;5024329;28;20773;-60
2022/07/20 01:07:46;;;;;;;4.28;3.90;;;;;;;;;;5021505;28;20191;-59
2022/07/20 01:10:13;;;;;;;5.07;3.83;;;;;;;;;;5024717;28;20178;-60
2022/07/20 01:12:40;;;;;;;4.05;3.75;;;;;;;;;;5024103;28;20656;-59
2022/07/20 01:15:06;;;;;;;3.67;3.38;;;;;;;;;;5028259;28;20186;-58
2022/07/20 01:17:32;;;;;;;4.07;3.70;;;;;;;;;;5029391;28;20595;-60
2022/07/20 01:20:02;;;;;;;3.90;3.58;;;;;;;;;;5026064;28;20726;-57
2022/07/20 01:22:31;;;;;;;3.88;3.58;;;;;;;;;;5025214;28;20471;-59
2022/07/20 01:24:57;;;;;;;3.88;3.58;;;;;;;;;;5025334;28;20178;-60
2022/07/20 01:27:23;;;;;;;4.25;3.95;;;;;;;;;;5027267;28;20177;-59
2022/07/20 01:29:49;;;;;;;4.97;4.35;;;;;;;;;;5027454;28;20174;-59
2022/07/20 01:32:15;;;;;;;3.57;3.37;;;;;;;;;;5010339;28;20657;-59
2022/07/20 01:34:41;;;;;;;4.35;3.95;;;;;;;;;;5026441;28;20186;-59
2022/07/20 01:37:07;;;;;;;4.30;4.00;;;;;;;;;;5007435;28;20224;-60
2022/07/20 01:39:33;;;;;;;4.07;3.67;;;;;;;;;;5025652;28;20173;-60
2022/07/20 01:42:05;;;;;;;4.30;3.90;;;;;;;;;;5024661;28;20648;-60
2022/07/20 01:44:32;;;;;;;3.90;3.60;;;;;;;;;;5022526;28;20190;-58
2022/07/20 01:46:58;;;;;;;4.17;3.77;;;;;;;;;;5030065;28;20397;-59
2022/07/20 01:49:24;;;;;;;4.37;4.00;;;;;;;;;;5017534;28;20178;-59
2022/07/20 01:51:51;;;;;;;4.30;3.97;;;;;;;;;;5021038;28;20196;-57
2022/07/20 01:54:20;;;;;;;3.87;3.63;;;;;;;;;;5024126;28;20268;-59
2022/07/20 01:56:46;;;;;;;4.23;3.93;;;;;;;;;;5026380;28;20658;-59
2022/07/20 01:59:12;;;;;;;4.00;3.70;;;;;;;;;;5008430;28;20210;-59
2022/07/20 02:01:39;;;;;;;3.90;3.60;;;;;;;;;;5021557;28;20206;-58
2022/07/20 02:04:05;;;;;;;4.07;3.83;;;;;;;;;;5035729;28;20676;-59
2022/07/20 02:06:31;;;;;;;3.80;3.47;;;;;;;;;;5009241;28;20188;-58
2022/07/20 02:09:00;;;;;;;4.20;3.90;;;;;;;;;;5011335;28;20222;-58
2022/07/20 02:11:26;;;;;;;3.83;3.53;;;;;;;;;;5005652;28;20188;-58
2022/07/20 02:13:52;;;;;;;4.47;3.90;;;;;;;;;;5007718;28;20189;-58
2022/07/20 02:16:19;;;;;;;3.93;3.60;;;;;;;;;;5023638;28;20191;-58
2022/07/20 02:18:55;;;;;;;3.87;3.57;;;;;;;;;;5024264;28;20203;-59
2022/07/20 02:21:21;;;;;;;5.27;3.90;;;;;;;;;;5005996;28;20206;-59
2022/07/20 02:23:48;;;;;;;3.90;3.60;;;;;;;;;;5007318;28;20184;-57
2022/07/20 02:26:14;;;;;;;3.90;3.57;;;;;;;;;;5030448;28;20318;-59
2022/07/20 02:28:44;;;;;;;3.83;3.47;;;;;;;;;;5025211;28;20189;-58
2022/07/20 02:31:10;;;;;;;4.37;3.97;;;;;;;;;;5026670;28;20240;-58
2022/07/20 02:33:36;;;;;;;3.80;3.50;;;;;;;;;;5037376;28;20597;-58
2022/07/20 02:36:02;;;;;;;4.47;3.83;;;;;;;;;;5022460;28;20664;-57
2022/07/20 02:38:28;;;;;;;3.63;3.43;;;;;;;;;;5004442;28;20572;-59
2022/07/20 02:40:54;;;;;;;4.73;4.37;;;;;;;;;;5033472;28;20189;-58
2022/07/20 02:43:21;;;;;;;4.07;3.63;;;;;;;;;;5017248;28;20639;-57
2022/07/20 02:45:47;;;;;;;4.93;4.40;;;;;;;;;;5008238;28;20205;-58
2022/07/20 02:48:13;;;;;;;4.23;3.93;;;;;;;;;;5010814;28;20670;-58
2022/07/20 02:50:42;;;;;;;4.47;4.07;;;;;;;;;;5015186;28;20190;-59
2022/07/20 02:53:12;;;;;;;4.00;3.70;;;;;;;;;;5004417;28;20187;-58
2022/07/20 02:55:41;;;;;;;4.40;4.10;;;;;;;;;;5012828;28;20214;-59
2022/07/20 02:58:07;;;;;;;4.40;4.00;;;;;;;;;;5002909;28;20239;-58
2022/07/20 03:00:34;;;;;;;4.10;3.80;;;;;;;;;;5007174;28;20629;-58
2022/07/20 03:03:00;;;;;;;4.10;3.80;;;;;;;;;;5004022;28;20181;-53
2022/07/20 03:05:26;;;;;;;4.13;3.80;;;;;;;;;;4988488;28;20203;-53
2022/07/20 03:07:52;;;;;;;4.00;3.70;;;;;;;;;;4998588;28;20236;-53
2022/07/20 03:10:18;;;;;;;4.13;3.80;;;;;;;;;;4984429;28;20191;-53
2022/07/20 03:12:45;;;;;;;4.43;4.03;;;;;;;;;;5005386;28;20635;-53
2022/07/20 03:15:11;;;;;;;7.33;6.90;;;;;;;;;;5007931;28;20188;-53
2022/07/20 03:17:41;;;;;;;4.97;4.57;;;;;;;;;;5005940;28;20209;-54
2022/07/20 03:20:07;;;;;;;4.93;4.53;;;;;;;;;;5017786;28;20237;-54
2022/07/20 03:22:41;;;;;;;4.40;4.10;;;;;;;;;;5000127;28;20263;-54
2022/07/20 03:25:07;;;;;;;4.20;3.90;;;;;;;;;;5005297;28;20525;-54
2022/07/20 03:27:34;;;;;;;4.87;4.50;;;;;;;;;;5003591;28;20196;-53
2022/07/20 03:30:00;;;;;;;4.60;4.20;;;;;;;;;;5005576;28;20769;-53
2022/07/20 03:32:26;;;;;;;4.43;4.03;;;;;;;;;;5002419;28;20176;-53
2022/07/20 03:34:52;;;;;;;4.20;3.80;;;;;;;;;;5020274;28;20268;-55
2022/07/20 03:37:18;;;;;;;4.67;4.27;;;;;;;;;;4984946;28;20231;-54
2022/07/20 03:39:50;;;;;;;4.67;4.23;;;;;;;;;;4996879;28;20193;-54
2022/07/20 03:42:16;;;;;;;4.87;4.47;;;;;;;;;;4995698;28;20180;-53
2022/07/20 03:44:42;;;;;;;4.23;3.90;;;;;;;;;;5027891;28;20177;-54
2022/07/20 03:47:09;;;;;;;4.80;4.40;;;;;;;;;;5007604;28;20283;-54
2022/07/20 03:49:35;;;;;;;4.10;3.80;;;;;;;;;;5028221;28;20639;-54
2022/07/20 03:52:01;;;;;;;4.30;3.90;;;;;;;;;;5027749;28;20180;-54
2022/07/20 03:54:27;;;;;;;4.80;4.03;;;;;;;;;;5024655;28;20201;-55
2022/07/20 03:56:53;;;;;;;4.50;4.10;;;;;;;;;;5023185;28;20201;-53
2022/07/20 03:59:19;;;;;;;4.07;3.77;;;;;;;;;;5026937;28;20179;-53
2022/07/20 04:01:45;;;;;;;4.30;4.00;;;;;;;;;;5024187;28;20172;-54
2022/07/20 04:04:11;;;;;;;4.10;3.67;;;;;;;;;;5029765;28;20279;-55
2022/07/20 04:06:37;;;;;;;4.53;3.97;;;;;;;;;;5030330;28;20177;-55
2022/07/20 04:09:04;;;;;;;4.57;4.23;;;;;;;;;;5025865;28;20169;-54
2022/07/20 04:11:37;;;;;;;3.87;3.57;;;;;;;;;;5026128;28;20177;-54
2022/07/20 04:14:03;;;;;;;3.53;3.30;;;;;;;;;;5025818;28;20238;-54
2022/07/20 04:16:29;;;;;;;4.00;3.60;;;;;;;;;;5024589;28;20205;-55
2022/07/20 04:18:56;;;;;;;4.37;4.07;;;;;;;;;;5026214;28;20210;-53
2022/07/20 04:21:22;;;;;;;6.20;5.80;;;;;;;;;;5035599;28;20295;-54
2022/07/20 04:23:48;;;;;;;4.00;3.70;;;;;;;;;;5006222;28;20686;-54
2022/07/20 04:26:14;;;;;;;4.17;3.77;;;;;;;;;;5024272;28;20191;-56
2022/07/20 04:28:40;;;;;;;4.07;3.80;;;;;;;;;;5026520;28;20642;-55
2022/07/20 04:31:06;;;;;;;4.80;4.40;;;;;;;;;;5021636;28;20770;-54
2022/07/20 04:33:32;;;;;;;4.10;3.80;;;;;;;;;;5024530;28;20192;-55
2022/07/20 04:35:58;;;;;;;4.27;3.97;;;;;;;;;;5025085;28;20181;-54
2022/07/20 04:38:24;;;;;;;3.63;3.33;;;;;;;;;;5025255;28;20198;-55
2022/07/20 04:40:50;;;;;;;5.20;4.30;;;;;;;;;;5021483;28;20193;-54
2022/07/20 04:43:16;;;;;;;4.27;3.87;;;;;;;;;;5032638;28;20222;-56
2022/07/20 04:45:42;;;;;;;4.00;3.60;;;;;;;;;;5007017;28;20185;-54
2022/07/20 04:48:08;;;;;;;4.30;4.00;;;;;;;;;;5016434;28;20223;-55
2022/07/20 04:50:35;;;;;;;4.33;4.03;;;;;;;;;;5034407;28;20200;-56
2022/07/20 04:53:01;;;;;;;4.17;3.77;;;;;;;;;;5002879;28;20188;-55
2022/07/20 04:55:27;;;;;;;4.13;3.70;;;;;;;;;;5024767;28;20181;-54
2022/07/20 04:57:53;;;;;;;4.97;3.93;;;;;;;;;;5024933;28;20208;-55
2022/07/20 05:00:30;;;;;;;5.60;5.20;;;;;;;;;;5022622;28;20189;-54
2022/07/20 05:02:56;;;;;;;4.40;4.00;;;;;;;;;;5021889;28;20577;-55
2022/07/20 05:05:25;;;;;;;3.97;3.60;;;;;;;;;;5025792;28;20212;-54
2022/07/20 05:07:54;;;;;;;4.50;4.10;;;;;;;;;;5012955;28;20184;-54
2022/07/20 05:10:23;;;;;;;4.00;3.70;;;;;;;;;;4988058;28;20177;-55
2022/07/20 05:12:49;;;;;;;4.37;3.97;;;;;;;;;;5013276;28;20592;-54
2022/07/20 05:15:15;;;;;;;4.33;3.93;;;;;;;;;;4998245;28;20667;-54
2022/07/20 05:17:41;;;;;;;4.83;4.33;;;;;;;;;;5011408;28;20874;-54
2022/07/20 05:20:08;;;;;;;5.43;4.33;;;;;;;;;;5015921;28;20205;-54
2022/07/20 05:22:34;;;;;;;4.97;4.57;;;;;;;;;;5004554;28;20766;-54
2022/07/20 05:25:00;;;;;;;5.40;4.90;;;;;;;;;;5008616;28;20286;-54
2022/07/20 05:27:27;;;;;;;5.10;4.70;;;;;;;;;;5024520;28;20735;-53
2022/07/20 05:29:53;;;;;;;5.90;5.33;;;;;;;;;;5027259;28;20198;-54
2022/07/20 05:32:19;;;;;;;7.33;5.17;;;;;;;;;;5015484;28;20243;-53
2022/07/20 05:34:45;;;;;;;5.33;4.93;;;;;;;;;;5029027;28;20736;-55
2022/07/20 05:37:11;;;;;;;6.10;5.50;;;;;;;;;;5009153;28;20516;-54
2022/07/20 05:39:38;;;;;;;7.13;6.47;;;;;;;;;;5008214;28;20232;-54
2022/07/20 05:42:04;;;;;;;10.93;6.30;;;;;;;;;;5021777;28;20522;-55
2022/07/20 05:44:30;;;;;;;7.03;6.43;;;;;;;;;;5047860;28;20225;-54
2022/07/20 05:46:56;;;;;;;7.97;7.30;;;;;;;;;;5015648;28;20193;-53
2022/07/20 05:49:22;;;;;;;8.50;6.80;;;;;;;;;;5030399;28;20739;-55
2022/07/20 05:51:49;;;;;;;8.53;6.60;;;;;;;;;;5026789;28;20869;-54
2022/07/20 05:54:15;;;;;;;8.83;7.47;;;;;;;;;;5001181;28;20637;-54
2022/07/20 05:56:41;;;;;;;8.27;7.47;;;;;;;;;;5004808;28;20191;-54
2022/07/20 05:59:07;;;;;;;8.23;7.40;;;;;;;;;;5018596;28;20198;-56
2022/07/20 06:01:34;;;;;;;12.07;9.17;;;;;;;;;;5013150;28;20180;-54
2022/07/20 06:04:00;;;;;;;9.87;8.93;;;;;;;;;;5039766;28;20648;-53
2022/07/20 06:06:26;;;;;;;10.30;9.00;;;;;;;;;;5016882;28;20508;-54
2022/07/20 06:08:52;;;;;;;11.40;9.73;;;;;;;;;;5025667;28;20194;-55
2022/07/20 06:11:18;;;;;;;10.17;9.03;;;;;;;;;;5007315;28;20182;-54
2022/07/20 06:13:45;;;;;;;12.80;9.53;;;;;;;;;;5028719;28;20185;-55
2022/07/20 06:16:11;;;;;;;10.93;9.80;;;;;;;;;;5022776;28;20189;-54
2022/07/20 06:18:37;;;;;;;11.30;10.20;;;;;;;;;;5024307;28;20206;-54
2022/07/20 06:21:04;;;;;;;11.50;10.40;;;;;;;;;;5026761;28;20242;-57
2022/07/20 06:23:30;;;;;;;12.43;11.23;;;;;;;;;;5034812;28;20196;-55
2022/07/20 06:25:56;;;;;;;14.80;11.13;;;;;;;;;;5010146;28;20192;-54
2022/07/20 06:28:22;;;;;;;14.87;12.03;;;;;;;;;;5013133;28;20294;-54
2022/07/20 06:30:48;;;;;;;12.50;11.30;;;;;;;;;;5036649;28;20660;-54
2022/07/20 06:33:17;;;;;;;12.90;11.70;;;;;;;;;;5032278;28;20194;-54
2022/07/20 06:35:43;;;;;;;13.70;12.40;;;;;;;;;;5007574;28;20224;-56
2022/07/20 06:38:09;;;;;;;13.30;11.90;;;;;;;;;;5019989;28;20233;-53
2022/07/20 06:40:35;;;;;;;15.03;13.50;;;;;;;;;;5020303;28;20186;-54
2022/07/20 06:43:02;;;;;;;14.57;12.30;;;;;;;;;;5022739;28;20306;-54
2022/07/20 06:45:28;;;;;;;14.53;13.03;;;;;;;;;;5026704;28;20182;-54
2022/07/20 06:47:54;;;;;;;15.30;13.77;;;;;;;;;;5024295;28;20265;-53
2022/07/20 06:50:20;;;;;;;16.00;14.13;;;;;;;;;;5026430;28;20625;-54
2022/07/20 06:52:46;;;;;;;15.23;12.93;;;;;;;;;;5019965;28;20180;-54
2022/07/20 06:55:12;;;;;;;16.83;14.73;;;;;;;;;;5019133;28;20190;-53
2022/07/20 06:57:38;;;;;;;14.27;12.77;;;;;;;;;;5016601;28;20631;-52
2022/07/20 07:00:06;;;;;;;21.40;15.20;;;;;;;;;;5021610;28;20595;-54
2022/07/20 07:02:32;;;;;;;17.57;13.87;;;;;;;;;;5022358;28;20175;-54
2022/07/20 07:04:58;;;;;;;15.67;14.03;;;;;;;;;;5012043;28;20192;-56
2022/07/20 07:07:24;;;;;;;16.37;14.43;;;;;;;;;;5026448;28;20183;-54
2022/07/20 07:09:51;;;;;;;15.60;13.33;;;;;;;;;;5023524;28;20286;-54
2022/07/20 07:12:17;;;;;;;16.83;14.03;;;;;;;;;;5020482;28;20187;-54
2022/07/20 07:14:43;;;;;;;15.87;14.20;;;;;;;;;;5008274;28;20188;-54
2022/07/20 07:17:09;;;;;;;16.73;14.83;;;;;;;;;;5022634;28;20230;-54
2022/07/20 07:19:36;;;;;;;16.10;14.33;;;;;;;;;;5020076;28;20208;-55
2022/07/20 07:22:02;;;;;;;16.60;14.83;;;;;;;;;;5025882;28;20185;-54
2022/07/20 07:24:28;;;;;;;16.60;14.90;;;;;;;;;;5024816;28;20566;-53
2022/07/20 07:26:54;;;;;;;15.57;14.17;;;;;;;;;;5017065;28;20185;-54
2022/07/20 07:29:20;;;;;;;15.67;14.20;;;;;;;;;;5021948;28;20598;-53
2022/07/20 07:31:46;;;;;;;15.90;14.40;;;;;;;;;;5004592;28;20718;-54
2022/07/20 07:34:12;;;;;;;17.17;15.40;;;;;;;;;;5024248;28;20205;-54
2022/07/20 07:36:38;;;;;;;17.23;15.50;;;;;;;;;;5006600;28;20195;-53
2022/07/20 07:39:05;;;;;;;16.40;14.90;;;;;;;;;;5021983;28;20205;-54
2022/07/20 07:41:31;;;;;;;18.20;16.33;;;;;;;;;;5018646;28;20536;-54
2022/07/20 07:43:57;;;;;;;17.80;16.00;;;;;;;;;;5019783;28;20554;-54
2022/07/20 07:46:23;;;;;;;18.37;16.57;;;;;;;;;;5021284;28;20253;-56
2022/07/20 07:48:50;;;;;;;21.07;17.03;;;;;;;;;;5021859;28;20220;-54
2022/07/20 07:51:16;;;;;;;18.47;16.87;;;;;;;;;;5022163;28;20664;-56
2022/07/20 07:53:42;;;;;;;16.93;15.23;;;;;;;;;;5005486;28;20654;-53
2022/07/20 07:56:08;;;;;;;18.77;17.00;;;;;;;;;;5018584;28;20674;-55
2022/07/20 07:58:34;;;;;;;18.93;17.03;;;;;;;;;;5019705;28;20368;-55
2022/07/20 08:01:00;;;;;;;17.97;16.37;;;;;;;;;;5024589;28;20189;-54
2022/07/20 08:03:26;;;;;;;19.13;17.33;;;;;;;;;;5020854;28;20555;-55
2022/07/20 08:05:52;;;;;;;18.43;16.73;;;;;;;;;;5024174;28;20934;-54
2022/07/20 08:08:19;;;;;;;18.27;16.40;;;;;;;;;;5015960;28;20276;-56
2022/07/20 08:10:45;;;;;;;18.83;17.03;;;;;;;;;;5019789;28;20546;-54
2022/07/20 08:13:12;;;;;;;18.73;16.67;;;;;;;;;;5016812;28;20216;-56
2022/07/20 08:15:38;;;;;;;18.37;16.50;;;;;;;;;;5015668;28;20188;-55
2022/07/20 08:18:05;;;;;;;20.73;17.27;;;;;;;;;;5001118;28;20707;-56
2022/07/20 08:20:31;;;;;;;19.67;17.80;;;;;;;;;;5004201;28;20202;-53
2022/07/20 08:22:58;;;;;;;19.57;17.77;;;;;;;;;;5022696;28;20569;-55
2022/07/20 08:25:24;;;;;;;19.23;17.23;;;;;;;;;;5021329;28;20207;-54
2022/07/20 08:27:50;;;;;;;22.00;18.30;;;;;;;;;;5025493;28;20214;-54
2022/07/20 08:30:17;;;;;;;19.77;17.67;;;;;;;;;;5023896;28;20239;-54
2022/07/20 08:32:43;;;;;;;20.27;17.97;;;;;;;;;;5025968;28;20644;-54
2022/07/20 08:35:10;;;;;;;18.77;16.90;;;;;;;;;;5021500;28;20589;-54
2022/07/20 08:37:37;;;;;;;21.33;18.10;;;;;;;;;;5005245;28;20263;-56
2022/07/20 08:40:04;;;;;;;20.77;18.57;;;;;;;;;;4999722;28;20187;-54
2022/07/20 08:42:31;;;;;;;19.87;17.73;;;;;;;;;;5004709;28;20638;-54
2022/07/20 08:44:57;;;;;;;18.53;16.73;;;;;;;;;;5001378;28;20733;-54
2022/07/20 08:47:26;;;;;;;20.23;18.30;;;;;;;;;;4999382;28;20219;-56
2022/07/20 08:49:53;;;;;;;19.50;17.67;;;;;;;;;;5022807;28;20551;-54
2022/07/20 08:52:19;;;;;;;21.60;18.30;;;;;;;;;;5005006;28;20271;-55
2022/07/20 08:54:45;;;;;;;18.07;16.27;;;;;;;;;;5007676;28;20594;-55
2022/07/20 08:57:13;;;;;;;17.77;16.00;;;;;;;;;;5007727;28;20692;-55
2022/07/20 08:59:39;;;;;;;18.90;17.00;;;;;;;;;;5027333;28;20239;-53
2022/07/20 09:02:08;;;;;;;19.50;17.50;;;;;;;;;;5026308;28;20180;-54
2022/07/20 09:04:49;;;;;;;18.90;17.10;;;;;;;;;;5009502;28;20689;-55
2022/07/20 09:07:15;;;;;;;19.47;17.20;;;;;;;;;;5007963;28;20250;-55
2022/07/20 09:09:41;;;;;;;21.03;17.23;;;;;;;;;;5024453;28;20188;-54
2022/07/20 09:12:08;;;;;;;17.97;16.17;;;;;;;;;;5022002;28;20273;-55
2022/07/20 09:14:47;;;;;;;19.27;17.37;;;;;;;;;;5024741;28;20181;-56
2022/07/20 09:17:15;;;;;;;18.50;16.67;;;;;;;;;;5007121;28;20205;-55
2022/07/20 09:19:54;;;;;;;18.70;16.73;;;;;;;;;;5009234;28;20615;-53
2022/07/20 09:22:30;;;;;;;19.53;17.00;;;;;;;;;;5017040;28;20178;-53
2022/07/20 09:25:10;;;;;;;17.83;16.03;;;;;;;;;;5004924;28;20182;-56
2022/07/20 09:27:36;;;;;;;25.37;16.23;;;;;;;;;;5022155;28;20724;-54
2022/07/20 09:30:20;;;;;;;16.33;14.67;;;;;;;;;;5027914;28;20209;-55
2022/07/20 09:33:05;;;;;;;16.33;14.80;;;;;;;;;;5023850;28;20527;-54
2022/07/20 09:35:35;;;;;;;17.13;15.43;;;;;;;;;;5011390;28;20267;-55
2022/07/20 09:38:03;;;;;;;16.87;14.83;;;;;;;;;;5007687;28;20245;-55
2022/07/20 09:40:45;;;;;;;17.90;15.00;;;;;;;;;;5008585;28;20177;-56
2022/07/20 09:43:26;;;;;;;16.13;14.70;;;;;;;;;;5024392;28;20255;-54
2022/07/20 09:45:54;;;;;;;18.43;15.40;;;;;;;;;;5028311;28;20187;-53
2022/07/20 09:48:24;;;;;;;16.73;14.40;;;;;;;;;;5007849;28;20529;-55
2022/07/20 09:50:51;;;;;;;19.07;15.47;;;;;;;;;;5008848;28;20315;-53
2022/07/20 09:53:17;;;;;;;17.87;13.67;;;;;;;;;;5023995;28;20655;-56
2022/07/20 09:55:43;;;;;;;15.93;14.33;;;;;;;;;;5024946;28;20181;-52
2022/07/20 09:58:10;;;;;;;15.17;13.73;;;;;;;;;;4989009;28;20662;-56
2022/07/20 10:00:37;;;;;;;14.57;13.27;;;;;;;;;;5004630;28;20204;-54
2022/07/20 10:03:04;;;;;;;15.17;13.70;;;;;;;;;;5004645;28;20790;-54
2022/07/20 10:05:34;;;;;;;14.57;13.17;;;;;;;;;;5024864;28;20180;-53
2022/07/20 10:08:01;;;;;;;17.77;12.17;;;;;;;;;;5024214;28;20189;-53
2022/07/20 10:10:28;;;;;;;17.67;13.23;;;;;;;;;;5004119;28;20184;-53
2022/07/20 10:12:55;;;;;;;15.07;13.23;;;;;;;;;;5009124;28;20623;-53
2022/07/20 10:15:24;;;;;;;12.80;10.77;;;;;;;;;;5009866;28;20547;-52
2022/07/20 10:17:54;;;;;;;13.40;12.07;;;;;;;;;;5008339;28;20292;-53
2022/07/20 10:20:30;;;;;;;13.05;11.73;;;;;;;;;;5027643;28;20513;-53
2022/07/20 10:23:15;;;;;;;17.20;12.45;;;;;;;;;;5002081;28;20706;-54
2022/07/20 10:25:42;;;;;;;17.35;12.52;;;;;;;;;;5023566;28;20647;-53
2022/07/20 10:28:24;;;;;;;14.77;12.13;;;;;;;;;;5017370;28;20526;-53
2022/07/20 10:30:54;;;;;;;15.05;12.32;;;;;;;;;;5017175;28;20243;-54
2022/07/20 10:33:21;;;;;;;14.57;12.48;;;;;;;;;;5023127;28;20671;-53
2022/07/20 10:35:48;;;;;;;14.35;12.02;;;;;;;;;;5027498;28;20620;-54
2022/07/20 10:38:17;;;;;;;14.05;12.65;;;;;;;;;;5024773;28;20687;-54
2022/07/20 10:44:06;;;;;;;14.65;13.13;;;;;;;;;;5022694;28;20303;-54
2022/07/20 10:46:33;;;;;;;15.73;14.02;;;;;;;;;;5023138;28;20536;-54
2022/07/20 10:48:59;;;;;;;13.68;12.38;;;;;;;;;;5022334;28;20644;-53
2022/07/20 10:51:26;;;;;;;16.55;13.40;;;;;;;;;;5019924;28;20565;-55
2022/07/20 10:53:52;;;;;;;18.88;14.32;;;;;;;;;;5022656;28;20175;-55
2022/07/20 10:56:28;;;;;;;15.35;13.55;;;;;;;;;;5021252;28;20274;-53
2022/07/20 10:59:00;;;;;;;15.20;12.80;;;;;;;;;;5020737;28;20654;-53
2022/07/20 11:01:26;;;;;;;15.48;13.80;;;;;;;;;;5025353;28;20174;-55
2022/07/20 11:03:52;;;;;;;14.68;13.23;;;;;;;;;;5025117;28;20186;-53
2022/07/20 11:06:25;;;;;;;16.85;14.98;;;;;;;;;;5003757;28;20564;-54
2022/07/20 11:08:53;;;;;;;15.75;13.35;;;;;;;;;;5006498;28;20675;-54
2022/07/20 11:11:30;;;;;;;14.18;12.68;;;;;;;;;;5024306;28;20184;-53
2022/07/20 11:13:56;;;;;;;14.73;13.23;;;;;;;;;;5024819;28;20414;-53
2022/07/20 11:16:23;;;;;;;16.52;13.48;;;;;;;;;;5025375;28;20598;-54
2022/07/20 11:18:50;;;;;;;15.15;13.60;;;;;;;;;;5018886;28;20284;-54
2022/07/20 11:21:16;;;;;;;13.82;12.27;;;;;;;;;;5024404;28;20285;-54
2022/07/20 11:23:47;;;;;;;14.02;12.60;;;;;;;;;;5024607;28;20272;-53
2022/07/20 11:26:17;;;;;;;12.20;10.90;;;;;;;;;;5021784;28;20195;-53
2022/07/20 11:28:48;;;;;;;12.73;11.40;;;;;;;;;;5004419;28;20230;-53
2022/07/20 11:31:14;;;;;;;14.75;10.88;;;;;;;;;;5020052;28;20230;-54
2022/07/20 11:33:44;;;;;;;13.77;11.75;;;;;;;;;;5006029;28;20487;-54
2022/07/20 11:36:18;;;;;;;13.07;11.63;;;;;;;;;;5004416;28;20182;-53
2022/07/20 11:38:49;;;;;;;12.40;11.15;;;;;;;;;;5023561;28;20522;-53
2022/07/20 11:41:22;;;;;;;12.00;10.80;;;;;;;;;;5020018;28;20447;-54
2022/07/20 11:43:52;;;;;;;14.23;11.30;;;;;;;;;;4990483;28;20573;-54
2022/07/20 11:46:22;;;;;;;13.82;12.45;;;;;;;;;;5025175;28;20950;-53
2022/07/20 11:48:59;;;;;;;12.35;11.18;;;;;;;;;;5008117;28;20658;-52
2022/07/20 11:51:26;;;;;;;16.20;10.60;;;;;;;;;;5025851;28;20184;-53
2022/07/20 11:53:52;;;;;;;11.70;10.55;;;;;;;;;;5001564;28;20558;-53
2022/07/20 11:56:20;;;;;;;12.32;10.38;;;;;;;;;;5019281;28;20189;-53
2022/07/20 11:58:47;;;;;;;11.73;10.55;;;;;;;;;;5006361;28;20209;-53
2022/07/20 12:01:16;;;;;;;13.43;12.32;;;;;;;;;;5020520;28;20215;-53
2022/07/20 12:03:43;;;;;;;10.52;9.63;;;;;;;;;;5005409;28;20229;-54
2022/07/20 12:06:10;;;;;;;10.05;9.13;;;;;;;;;;5025069;28;20262;-52
2022/07/20 12:08:37;;;;;;;13.07;10.00;;;;;;;;;;5021401;28;20639;-53
2022/07/20 12:11:03;;;;;;;10.63;9.70;;;;;;;;;;5004278;28;20181;-53
2022/07/20 12:13:30;;;;;;;10.93;9.77;;;;;;;;;;5019532;28;20215;-53
2022/07/20 12:15:56;;;;;;;9.82;8.80;;;;;;;;;;5020107;28;20876;-53
2022/07/20 12:18:36;;;;;;;10.77;9.43;;;;;;;;;;5022576;28;20761;-53
2022/07/20 12:21:02;;;;;;;9.63;8.75;;;;;;;;;;5017906;28;20293;-53
2022/07/20 12:23:28;;;;;;;10.13;9.20;;;;;;;;;;5016454;28;20171;-53
2022/07/20 12:25:54;;;;;;;14.60;8.73;;;;;;;;;;5018809;28;20170;-53
2022/07/20 12:28:27;;;;;;;14.40;9.85;;;;;;;;;;5019143;28;20233;-53
2022/07/20 12:30:54;;;;;;;12.57;9.80;;;;;;;;;;5008562;28;20636;-53
2022/07/20 12:33:20;;;;;;;12.55;10.30;;;;;;;;;;5023930;28;20211;-53
2022/07/20 12:35:48;;;;;;;14.85;10.07;;;;;;;;;;5022528;28;20182;-53
2022/07/20 12:38:15;;;;;;;10.52;9.52;;;;;;;;;;5026071;28;20690;-54
2022/07/20 12:40:45;;;;;;;10.55;9.48;;;;;;;;;;5028675;28;20177;-52
2022/07/20 12:43:27;;;;;;;9.57;8.40;;;;;;;;;;5027994;28;20195;-54
2022/07/20 12:45:55;;;;;;;10.00;8.50;;;;;;;;;;5026065;28;20437;-55
2022/07/20 12:48:21;;;;;;;8.05;7.20;;;;;;;;;;5021355;28;20170;-53
2022/07/20 12:50:47;;;;;;;13.10;8.48;;;;;;;;;;5025183;28;20735;-54
2022/07/20 12:53:13;;;;;;;10.63;7.60;;;;;;;;;;5015471;28;20174;-55
2022/07/20 12:55:39;;;;;;;8.75;7.45;;;;;;;;;;5024517;28;20571;-53
2022/07/20 12:58:06;;;;;;;10.48;7.88;;;;;;;;;;5026068;28;20226;-53
2022/07/20 13:00:32;;;;;;;8.18;7.47;;;;;;;;;;5008665;28;20177;-55
2022/07/20 13:02:58;;;;;;;10.65;7.65;;;;;;;;;;5026492;28;20178;-54
2022/07/20 13:05:25;;;;;;;8.00;7.28;;;;;;;;;;5028309;28;20170;-54
2022/07/20 13:07:51;;;;;;;8.90;7.78;;;;;;;;;;5011943;28;20204;-54
2022/07/20 13:10:17;;;;;;;9.43;6.85;;;;;;;;;;5010097;28;20248;-56
2022/07/20 13:12:44;;;;;;;8.52;7.25;;;;;;;;;;5024850;28;20550;-54
2022/07/20 13:15:10;;;;;;;8.02;7.22;;;;;;;;;;5029105;28;20169;-55
2022/07/20 13:17:36;;;;;;;7.78;7.03;;;;;;;;;;5024996;28;20745;-54
2022/07/20 13:20:05;;;;;;;8.90;7.03;;;;;;;;;;5026777;28;20662;-54
2022/07/20 13:22:32;;;;;;;8.40;7.60;;;;;;;;;;4993978;28;20205;-55
2022/07/20 13:24:58;;;;;;;7.70;6.70;;;;;;;;;;5025953;28;20598;-55
2022/07/20 13:27:24;;;;;;;7.78;6.97;;;;;;;;;;5026394;28;20184;-54
2022/07/20 13:29:50;;;;;;;9.07;7.32;;;;;;;;;;5026818;28;20236;-54
2022/07/20 13:32:16;;;;;;;8.25;7.45;;;;;;;;;;5032266;28;20659;-55
2022/07/20 13:34:42;;;;;;;7.40;6.80;;;;;;;;;;5024235;28;20182;-54
2022/07/20 13:37:09;;;;;;;8.07;7.15;;;;;;;;;;5023498;28;20688;-54
2022/07/20 13:39:35;;;;;;;8.23;7.43;;;;;;;;;;5032664;28;20248;-54
2022/07/20 13:42:01;;;;;;;8.50;7.35;;;;;;;;;;5015201;28;20175;-54
2022/07/20 13:44:27;;;;;;;7.57;6.88;;;;;;;;;;5001971;28;20415;-54
2022/07/20 13:46:53;;;;;;;7.32;6.47;;;;;;;;;;5000027;28;20238;-54
2022/07/20 13:49:19;;;;;;;8.38;6.70;;;;;;;;;;4989789;28;20172;-54
2022/07/20 13:51:45;;;;;;;7.38;6.63;;;;;;;;;;4993232;28;20174;-56
2022/07/20 13:54:11;;;;;;;8.63;6.07;;;;;;;;;;5002650;28;20170;-53
2022/07/20 13:56:38;;;;;;;10.20;8.30;;;;;;;;;;4998768;28;20189;-53
2022/07/20 13:59:04;;;;;;;11.95;8.30;;;;;;;;;;4999765;28;20248;-59
2022/07/20 14:01:31;;;;;;;8.88;7.88;;;;;;;;;;4998583;28;20229;-56
2022/07/20 14:04:08;;;;;;;9.73;8.73;;;;;;;;;;4997987;28;20175;-57
2022/07/20 14:06:34;;;;;;;9.02;6.68;;;;;;;;;;4998671;28;20232;-57
2022/07/20 14:09:00;;;;;;;10.75;7.25;;;;;;;;;;4982767;28;20182;-56
2022/07/20 14:11:26;;;;;;;9.18;7.35;;;;;;;;;;4983311;28;20275;-56
2022/07/20 14:13:53;;;;;;;8.00;7.20;;;;;;;;;;4989485;28;20927;-58
2022/07/20 14:16:19;;;;;;;8.60;7.70;;;;;;;;;;4996717;28;20698;-58
2022/07/20 14:18:47;;;;;;;8.38;7.57;;;;;;;;;;4994011;28;20240;-56
2022/07/20 14:21:15;;;;;;;10.90;9.68;;;;;;;;;;4987053;28;20222;-57
2022/07/20 14:23:41;;;;;;;7.75;7.03;;;;;;;;;;4999524;28;20716;-55
2022/07/20 14:26:07;;;;;;;8.15;7.28;;;;;;;;;;5007260;28;20196;-56
2022/07/20 14:28:33;;;;;;;8.07;7.25;;;;;;;;;;5001532;28;20194;-56
2022/07/20 14:31:00;;;;;;;10.55;7.45;;;;;;;;;;5001322;28;20169;-57
2022/07/20 14:33:26;;;;;;;9.40;7.20;;;;;;;;;;5003736;28;20230;-58
2022/07/20 14:35:59;;;;;;;8.45;7.65;;;;;;;;;;4997780;28;20210;-55
2022/07/20 14:38:25;;;;;;;9.45;7.95;;;;;;;;;;4998829;28;20399;-58